Time;durP1;ratioP1;P1;durP2;ratioP2;P2;SDS_P1;SDS_P2;PMS_P1;PMS_P2;Temp;Humidity;BMP_temperature;BMP_pressure;BME280_temperature;BME280_humidity;BME280_pressure;Samples;Min_cycle;Max_cycle;Signal;HPM_P1;HPM_P2
2022/07/03 00:01:55;;;;;;;11.30;6.53;;;;;;;19.65;74.57;99607.28;5062775;28;20024;-62
2022/07/03 00:04:21;;;;;;;9.82;6.30;;;;;;;19.64;74.94;99606.47;5062349;28;20187;-60
2022/07/03 00:06:47;;;;;;;8.93;6.75;;;;;;;19.69;74.77;99611.44;5063029;28;20045;-61
2022/07/03 00:09:14;;;;;;;7.10;6.03;;;;;;;19.71;75.47;99606.09;5063042;28;20025;-60
2022/07/03 00:11:40;;;;;;;11.50;6.55;;;;;;;19.73;76.98;99606.84;5062304;28;20049;-60
2022/07/03 00:14:05;;;;;;;9.70;6.63;;;;;;;19.75;78.60;99612.84;5068786;28;20036;-61
2022/07/03 00:16:31;;;;;;;9.35;6.38;;;;;;;19.76;76.25;99611.91;5081548;28;20340;-60
2022/07/03 00:18:57;;;;;;;13.30;6.80;;;;;;;19.76;77.66;99615.38;5062967;28;20080;-61
2022/07/03 00:21:41;;;;;;;12.65;7.60;;;;;;;19.81;78.64;99623.88;5045096;28;20040;-61
2022/07/03 00:24:18;;;;;;;8.38;6.22;;;;;;;19.69;78.76;99598.28;5062702;28;20093;-61
2022/07/03 00:26:47;;;;;;;12.50;7.07;;;;;;;19.77;77.88;99605.72;5062715;28;20052;-62
2022/07/03 00:29:15;;;;;;;7.57;6.75;;;;;;;19.48;79.00;99558.41;5062696;28;20066;-62
2022/07/03 00:31:42;;;;;;;9.35;7.18;;;;;;;19.65;79.73;99595.03;5062646;28;20051;-62
2022/07/03 00:34:09;;;;;;;10.15;7.00;;;;;;;19.67;79.88;99608.91;5062827;28;20326;-62
2022/07/03 00:36:37;;;;;;;8.85;6.53;;;;;;;19.61;80.79;99613.66;5062601;28;20075;-61
2022/07/03 00:39:04;;;;;;;9.43;7.90;;;;;;;19.63;80.32;99598.69;5062298;28;20029;-62
2022/07/03 00:41:32;;;;;;;8.98;6.97;;;;;;;19.36;80.61;99570.50;5065469;28;20025;-61
2022/07/03 00:43:58;;;;;;;9.90;7.00;;;;;;;19.49;79.55;99594.25;5048837;28;20017;-61
2022/07/03 00:46:25;;;;;;;8.27;6.90;;;;;;;19.48;79.42;99585.53;5066334;28;20025;-61
2022/07/03 00:48:53;;;;;;;8.38;6.95;;;;;;;19.41;79.35;99576.34;5066542;28;20036;-61
2022/07/03 00:51:27;;;;;;;13.40;7.22;;;;;;;19.19;81.29;99550.50;5066452;28;20037;-62
2022/07/03 00:53:56;;;;;;;9.88;7.22;;;;;;;19.18;81.23;99551.44;5066414;28;20318;-61
2022/07/03 00:56:29;;;;;;;15.35;8.23;;;;;;;19.26;81.68;99567.56;5066402;28;20267;-62
2022/07/03 00:58:58;;;;;;;10.15;7.85;;;;;;;19.45;80.90;99595.38;5070699;28;20029;-62
2022/07/03 01:01:32;;;;;;;11.43;7.32;;;;;;;19.51;81.79;99599.41;5086521;28;20069;-61
2022/07/03 01:04:09;;;;;;;12.13;8.02;;;;;;;19.41;81.53;99570.22;5048587;28;20409;-61
2022/07/03 01:06:40;;;;;;;9.15;6.75;;;;;;;19.18;79.95;99546.16;5066370;28;20099;-62
2022/07/03 01:09:06;;;;;;;8.07;6.78;;;;;;;19.52;79.08;99596.69;5080583;28;20036;-61
2022/07/03 01:11:41;;;;;;;9.43;6.95;;;;;;;19.46;80.23;99582.13;5059209;28;20048;-61
2022/07/03 01:14:24;;;;;;;11.25;6.35;;;;;;;19.54;80.05;99594.81;5066342;28;20329;-62
2022/07/03 01:16:54;;;;;;;9.10;6.10;;;;;;;19.46;78.31;99592.66;5065833;28;20025;-61
2022/07/03 01:19:19;;;;;;;8.93;6.50;;;;;;;19.45;78.24;99590.97;5066199;28;20088;-61
2022/07/03 01:22:06;;;;;;;8.68;6.35;;;;;;;19.51;77.31;99592.41;5048598;28;20429;-61
2022/07/03 01:25:04;;;;;;;8.60;6.35;;;;;;;19.52;78.92;99594.06;5083546;28;20020;-61
2022/07/03 01:27:47;;;;;;;9.95;6.65;;;;;;;19.51;78.98;99596.78;5086064;28;20029;-61
2022/07/03 01:30:13;;;;;;;9.23;6.88;;;;;;;19.46;78.78;99586.56;5086200;28;20086;-60
2022/07/03 01:32:45;;;;;;;8.48;6.95;;;;;;;19.50;80.06;99606.44;5075742;28;20025;-61
2022/07/03 01:35:27;;;;;;;10.98;6.93;;;;;;;19.52;80.54;99588.81;5048114;28;20218;-60
2022/07/03 01:37:54;;;;;;;9.90;7.60;;;;;;;19.52;80.82;99601.09;5047986;28;20057;-61
2022/07/03 01:40:21;;;;;;;8.57;6.55;;;;;;;19.47;79.36;99586.47;5065886;28;20025;-60
2022/07/03 01:42:48;;;;;;;9.45;6.80;;;;;;;19.16;79.19;99537.56;5065480;28;20021;-60
2022/07/03 01:45:17;;;;;;;10.10;6.78;;;;;;;19.49;78.62;99591.63;5078201;28;20031;-61
2022/07/03 01:47:46;;;;;;;10.23;6.82;;;;;;;19.23;79.51;99545.91;5065519;28;20040;-62
2022/07/03 01:50:13;;;;;;;8.00;6.85;;;;;;;19.54;79.61;99596.59;5047817;28;20186;-61
2022/07/03 01:52:42;;;;;;;7.15;6.38;;;;;;;19.28;79.29;99554.34;5064743;28;20096;-61
2022/07/03 01:55:15;;;;;;;12.73;7.57;;;;;;;19.55;79.93;99591.25;5047683;28;20273;-61
2022/07/03 01:57:46;;;;;;;13.48;7.57;;;;;;;19.58;79.15;99587.59;5065343;28;20096;-61
2022/07/03 02:00:14;;;;;;;8.25;6.00;;;;;;;19.62;77.88;99596.97;5065427;28;20078;-61
2022/07/03 02:02:50;;;;;;;11.93;7.28;;;;;;;19.34;78.79;99546.13;5057625;28;20103;-61
2022/07/03 02:05:44;;;;;;;10.55;6.57;;;;;;;19.34;76.24;99545.25;5078380;28;20035;-62
2022/07/03 02:08:24;;;;;;;9.18;6.65;;;;;;;19.71;76.67;99601.69;5065030;28;20238;-62
2022/07/03 02:11:18;;;;;;;9.57;6.97;;;;;;;19.72;75.85;99598.09;5065183;28;20247;-61
2022/07/03 02:14:12;;;;;;;9.75;7.20;;;;;;;19.57;74.87;99576.25;5064624;28;20036;-61
2022/07/03 02:16:44;;;;;;;9.40;6.72;;;;;;;19.73;74.86;99602.44;5083614;28;20036;-61
2022/07/03 02:19:11;;;;;;;;;;;;;;;19.71;74.25;99598.19;5047957;28;20323;-61
2022/07/03 02:21:43;;;;;;;8.27;6.85;;;;;;;19.40;74.28;99545.75;5065024;28;20039;-61
2022/07/03 02:24:22;;;;;;;;;;;;;;;19.74;73.76;99596.25;5079434;28;20024;-60
2022/07/03 02:27:05;;;;;;;7.88;6.47;;;;;;;19.80;73.63;99606.41;5073934;28;19976;-61
2022/07/03 02:29:35;;;;;;;7.47;5.80;;;;;;;19.62;72.38;99566.31;5073272;28;20210;-62
2022/07/03 02:32:06;;;;;;;8.02;5.45;;;;;;;19.58;71.71;99543.78;5074950;28;20037;-63
2022/07/03 02:34:34;;;;;;;7.57;5.10;;;;;;;19.96;71.74;99600.22;5045728;28;20322;-64
2022/07/03 02:37:10;;;;;;;7.15;5.70;;;;;;;19.91;71.29;99586.50;5084379;28;20097;-62
2022/07/03 02:39:57;;;;;;;6.55;4.95;;;;;;;19.75;70.53;99545.38;5048284;28;20107;-63
2022/07/03 02:42:44;;;;;;;8.90;5.25;;;;;;;20.06;70.30;99596.06;5064524;28;20302;-63
2022/07/03 02:45:11;;;;;;;7.82;4.72;;;;;;;20.14;69.51;99595.59;5062810;28;20330;-64
2022/07/03 02:48:02;;;;;;;7.15;5.22;;;;;;;20.08;69.20;99580.19;5054066;28;20089;-63
2022/07/03 02:50:31;;;;;;;7.57;4.57;;;;;;;20.22;69.20;99589.84;5058053;28;20025;-63
2022/07/03 02:53:02;;;;;;;5.25;4.38;;;;;;;20.26;68.62;99586.91;5030319;28;20075;-63
2022/07/03 02:55:44;;;;;;;5.97;5.25;;;;;;;20.29;69.28;99593.78;5064364;28;20074;-63
2022/07/03 02:58:09;;;;;;;8.80;4.95;;;;;;;20.30;70.33;99593.69;5051024;28;20024;-63
2022/07/03 03:00:38;;;;;;;7.20;5.03;;;;;;;20.26;68.75;99586.91;5064325;28;20333;-62
2022/07/03 03:03:05;;;;;;;5.82;4.50;;;;;;;20.36;67.33;99581.91;5064050;28;20086;-62
2022/07/03 03:05:41;;;;;;;6.07;4.88;;;;;;;20.45;66.81;99586.59;5061734;28;20029;-62
2022/07/03 03:08:35;;;;;;;5.72;5.13;;;;;;;20.53;67.07;99583.47;5059006;28;20035;-62
2022/07/03 03:11:13;;;;;;;6.10;5.05;;;;;;;20.29;67.98;99543.81;5048430;28;20092;-63
2022/07/03 03:13:43;;;;;;;8.70;5.50;;;;;;;20.58;67.42;99589.28;5063898;28;20051;-63
2022/07/03 03:16:12;;;;;;;5.72;5.22;;;;;;;20.29;67.00;99541.16;5064096;28;20048;-62
2022/07/03 03:18:41;;;;;;;5.70;4.78;;;;;;;20.70;65.75;99590.31;5055220;28;20037;-62
2022/07/03 03:21:10;;;;;;;8.00;5.90;;;;;;;20.75;66.59;99593.50;5043893;28;20025;-63
2022/07/03 03:23:48;;;;;;;6.82;5.43;;;;;;;20.52;66.76;99545.81;5040346;28;20256;-63
2022/07/03 03:26:28;;;;;;;8.63;5.50;;;;;;;20.91;66.93;99608.25;5060353;28;20028;-62
2022/07/03 03:28:54;;;;;;;8.75;5.53;;;;;;;20.91;66.69;99581.94;5063469;28;20037;-62
2022/07/03 03:31:21;;;;;;;6.20;5.45;;;;;;;20.97;66.06;99592.06;5063799;28;20025;-61
2022/07/03 03:33:49;;;;;;;7.90;5.07;;;;;;;21.05;65.53;99587.16;5045774;28;20037;-61
2022/07/03 03:36:17;;;;;;;6.05;5.10;;;;;;;21.11;65.17;99586.72;5063479;28;20053;-62
2022/07/03 03:38:43;;;;;;;5.72;5.03;;;;;;;21.20;65.46;99588.72;5063282;28;20040;-63
2022/07/03 03:41:09;;;;;;;5.32;4.82;;;;;;;21.20;64.98;99586.09;5061341;28;20036;-63
2022/07/03 03:43:35;;;;;;;5.88;5.10;;;;;;;21.20;65.56;99583.47;5043297;28;20213;-63
2022/07/03 03:46:02;;;;;;;7.32;5.53;;;;;;;21.25;63.64;99583.16;5046057;28;20311;-62
2022/07/03 03:48:29;;;;;;;7.13;5.25;;;;;;;21.26;64.96;99582.19;5075373;28;20032;-61
2022/07/03 03:50:56;;;;;;;7.25;5.28;;;;;;;21.02;65.03;99534.66;5061087;28;20021;-62
2022/07/03 03:53:23;;;;;;;7.45;5.55;;;;;;;21.43;64.70;99583.69;5056770;28;20024;-62
2022/07/03 03:56:07;;;;;;;7.07;5.07;;;;;;;21.53;64.68;99590.06;5063884;28;20206;-62
2022/07/03 03:58:35;;;;;;;7.50;5.22;;;;;;;21.55;64.95;99574.16;5063263;28;20044;-62
2022/07/03 04:01:03;;;;;;;8.60;4.97;;;;;;;21.67;64.24;99588.28;5043258;28;20025;-61
2022/07/03 04:03:30;;;;;;;6.20;5.50;;;;;;;21.75;63.30;99577.19;5058966;28;20071;-62
2022/07/03 04:05:56;;;;;;;8.10;5.90;;;;;;;21.81;62.74;99567.06;5062837;28;20056;-61
2022/07/03 04:08:22;;;;;;;7.80;5.47;;;;;;;21.89;63.67;99562.09;5062822;28;20037;-60
2022/07/03 04:10:48;;;;;;;6.18;5.07;;;;;;;21.93;64.13;99569.78;5061428;28;20097;-60
2022/07/03 04:13:15;;;;;;;6.40;5.45;;;;;;;22.02;63.89;99569.16;5048692;28;20218;-61
2022/07/03 04:15:41;;;;;;;5.97;5.15;;;;;;;22.08;63.12;99573.97;5046858;28;20028;-62
2022/07/03 04:18:06;;;;;;;6.70;5.43;;;;;;;21.99;64.45;99569.34;5055525;28;20036;-62
2022/07/03 04:20:32;;;;;;;7.75;5.15;;;;;;;22.07;64.59;99572.28;5055228;28;20102;-62
2022/07/03 04:22:58;;;;;;;6.07;5.18;;;;;;;22.12;64.00;99570.16;5045236;28;20310;-62
2022/07/03 04:25:24;;;;;;;5.38;4.88;;;;;;;22.20;64.10;99572.25;5062911;28;20063;-61
2022/07/03 04:27:50;;;;;;;8.50;4.97;;;;;;;22.17;64.15;99570.66;5062761;28;20032;-61
2022/07/03 04:30:15;;;;;;;6.65;5.55;;;;;;;22.18;64.01;99560.97;5062688;28;20096;-61
2022/07/03 04:32:41;;;;;;;6.75;5.07;;;;;;;22.35;63.96;99567.69;5062641;28;20063;-60
2022/07/03 04:35:07;;;;;;;8.55;5.90;;;;;;;22.39;62.98;99564.72;5062302;28;20060;-60
2022/07/03 04:37:33;;;;;;;7.22;5.43;;;;;;;22.51;63.78;99570.06;5062910;28;20104;-60
2022/07/03 04:39:58;;;;;;;7.22;5.53;;;;;;;22.55;64.06;99574.16;5062428;28;20313;-60
2022/07/03 04:42:24;;;;;;;8.40;5.40;;;;;;;22.64;63.03;99572.63;5062610;28;20303;-61
2022/07/03 04:44:49;;;;;;;7.75;6.25;;;;;;;22.72;63.84;99579.03;5072733;28;20025;-60
2022/07/03 04:47:15;;;;;;;7.72;5.38;;;;;;;22.72;63.67;99578.19;5063430;28;20025;-60
2022/07/03 04:49:43;;;;;;;6.03;5.38;;;;;;;22.84;63.92;99572.00;5062488;28;20029;-60
2022/07/03 04:52:09;;;;;;;7.15;6.03;;;;;;;22.93;64.33;99579.25;5062440;28;20036;-61
2022/07/03 04:54:35;;;;;;;8.13;6.25;;;;;;;22.98;63.74;99573.59;5051927;28;20027;-61
2022/07/03 04:57:02;;;;;;;7.57;5.90;;;;;;;23.12;62.70;99574.41;5061858;28;20028;-61
2022/07/03 04:59:27;;;;;;;6.85;5.80;;;;;;;23.16;62.87;99579.34;5069707;28;20025;-61
2022/07/03 05:01:53;;;;;;;7.30;6.18;;;;;;;23.26;61.67;99575.03;5074514;28;20067;-62
2022/07/03 05:04:18;;;;;;;6.75;5.80;;;;;;;23.26;62.78;99568.91;5044576;28;20088;-63
2022/07/03 05:06:44;;;;;;;10.60;6.05;;;;;;;23.30;62.33;99572.16;5062284;28;20044;-63
2022/07/03 05:09:10;;;;;;;7.85;6.53;;;;;;;23.41;61.85;99564.25;5057402;28;20024;-63
2022/07/03 05:11:36;;;;;;;8.20;6.28;;;;;;;23.45;62.76;99563.06;5074074;28;20392;-63
2022/07/03 05:14:03;;;;;;;7.22;6.53;;;;;;;23.60;61.58;99582.16;5044570;28;20063;-62
2022/07/03 05:16:28;;;;;;;8.13;6.35;;;;;;;23.83;61.18;99569.81;5062220;28;20079;-62
2022/07/03 05:18:54;;;;;;;9.75;6.30;;;;;;;24.01;60.84;99564.03;5061919;28;20017;-61
2022/07/03 05:21:19;;;;;;;8.23;6.38;;;;;;;24.06;60.12;99565.34;5061869;28;20033;-61
2022/07/03 05:23:45;;;;;;;9.20;7.00;;;;;;;24.11;60.41;99567.63;5063104;28;20020;-61
2022/07/03 05:26:11;;;;;;;11.20;6.70;;;;;;;24.24;60.05;99568.34;5063083;28;20036;-61
2022/07/03 05:28:36;;;;;;;9.25;6.80;;;;;;;24.21;57.99;99555.31;5064394;28;20021;-61
2022/07/03 05:31:02;;;;;;;6.28;5.68;;;;;;;24.48;59.23;99564.66;5059463;28;20036;-61
2022/07/03 05:33:28;;;;;;;8.70;6.10;;;;;;;24.59;59.42;99566.44;5062672;28;20036;-62
2022/07/03 05:35:57;;;;;;;8.90;6.40;;;;;;;24.63;58.08;99562.59;5060669;28;20260;-62
2022/07/03 05:41:07;;;;;;;7.53;6.60;;;;;;;24.91;58.94;99563.81;5064330;28;20032;-62
2022/07/03 05:43:33;;;;;;;11.85;7.75;;;;;;;24.87;58.40;99559.72;5063571;28;20052;-61
2022/07/03 05:45:58;;;;;;;7.78;6.80;;;;;;;24.97;58.77;99557.16;5066707;28;20195;-62
2022/07/03 05:48:24;;;;;;;7.43;6.72;;;;;;;24.99;58.29;99563.97;5061383;28;20060;-62
2022/07/03 05:50:49;;;;;;;7.85;6.10;;;;;;;25.02;59.64;99564.72;5065957;28;20355;-62
2022/07/03 05:53:15;;;;;;;9.18;7.15;;;;;;;24.89;57.22;99567.53;5064605;28;20043;-61
2022/07/03 05:55:41;;;;;;;6.93;6.32;;;;;;;24.94;57.20;99560.03;5064837;28;20028;-62
2022/07/03 05:58:06;;;;;;;9.77;7.78;;;;;;;25.07;57.67;99566.00;5063992;28;20052;-62
2022/07/03 06:00:32;;;;;;;11.20;8.10;;;;;;;25.12;57.72;99561.13;5063092;28;20049;-62
2022/07/03 06:02:58;;;;;;;6.90;6.30;;;;;;;25.20;58.12;99567.59;5064643;28;20024;-63
2022/07/03 06:05:23;;;;;;;7.05;6.30;;;;;;;25.27;56.95;99553.72;5066127;28;20563;-63
2022/07/03 06:07:49;;;;;;;8.27;7.38;;;;;;;25.38;56.96;99563.41;5064515;28;20029;-62
2022/07/03 06:10:15;;;;;;;6.88;6.18;;;;;;;25.42;57.83;99553.41;5064524;28;20086;-63
2022/07/03 06:12:41;;;;;;;6.90;6.18;;;;;;;25.55;57.09;99551.34;5064346;28;20423;-62
2022/07/03 06:15:07;;;;;;;7.63;6.75;;;;;;;25.58;56.85;99548.47;5057496;28;20029;-62
2022/07/03 06:17:35;;;;;;;8.82;6.65;;;;;;;25.64;57.53;99537.31;5062803;28;20044;-62
2022/07/03 06:20:02;;;;;;;8.38;7.13;;;;;;;25.60;56.59;99557.13;5064589;28;20067;-62
2022/07/03 06:22:28;;;;;;;9.02;6.57;;;;;;;25.70;56.72;99551.03;5064520;28;20036;-62
2022/07/03 06:24:54;;;;;;;7.75;6.65;;;;;;;25.79;56.41;99550.19;5047144;28;20028;-60
2022/07/03 06:27:19;;;;;;;11.80;7.45;;;;;;;25.84;56.51;99548.81;5078394;28;20036;-61
2022/07/03 06:29:45;;;;;;;8.60;6.78;;;;;;;25.95;55.92;99553.19;5065632;28;20036;-61
2022/07/03 06:32:11;;;;;;;10.82;5.97;;;;;;;26.05;55.60;99547.94;5063898;28;20021;-61
2022/07/03 06:34:36;;;;;;;7.68;6.80;;;;;;;26.06;55.92;99546.13;5063636;28;20333;-61
2022/07/03 06:37:02;;;;;;;8.10;6.20;;;;;;;26.00;55.65;99537.72;5063306;28;20053;-60
2022/07/03 06:39:27;;;;;;;8.02;6.60;;;;;;;26.14;55.66;99551.59;5060348;28;20308;-60
2022/07/03 06:41:53;;;;;;;10.02;6.15;;;;;;;26.20;55.40;99544.91;5063515;28;20302;-60
2022/07/03 06:44:18;;;;;;;7.78;6.85;;;;;;;26.27;55.68;99546.88;5063413;28;20035;-60
2022/07/03 06:46:45;;;;;;;7.32;6.50;;;;;;;26.18;55.15;99521.13;5062990;28;20029;-60
2022/07/03 06:49:11;;;;;;;7.63;6.63;;;;;;;26.46;55.40;99556.66;5063637;28;20029;-60
2022/07/03 06:51:37;;;;;;;8.23;6.57;;;;;;;26.48;55.64;99551.22;5063352;28;20033;-60
2022/07/03 06:54:03;;;;;;;8.85;6.47;;;;;;;26.53;55.10;99554.28;5062984;28;20035;-61
2022/07/03 06:56:28;;;;;;;7.57;6.63;;;;;;;26.57;53.80;99550.38;5062874;28;20088;-61
2022/07/03 06:58:54;;;;;;;9.07;7.13;;;;;;;26.60;53.99;99544.78;5048773;28;20037;-61
2022/07/03 07:01:19;;;;;;;8.35;7.15;;;;;;;26.61;53.22;99554.44;5059904;28;20032;-61
2022/07/03 07:03:45;;;;;;;7.70;7.00;;;;;;;26.67;53.19;99555.72;5077765;28;20031;-61
2022/07/03 07:06:11;;;;;;;9.07;7.30;;;;;;;26.69;53.49;99562.59;5044477;28;20032;-61
2022/07/03 07:08:36;;;;;;;7.90;7.10;;;;;;;26.82;53.70;99564.97;5062868;28;20033;-61
2022/07/03 07:11:02;;;;;;;8.80;6.80;;;;;;;26.85;53.32;99559.38;5034393;28;20033;-61
2022/07/03 07:13:27;;;;;;;7.20;6.45;;;;;;;26.98;52.91;99564.38;5063145;28;20310;-59
2022/07/03 07:15:53;;;;;;;7.43;6.70;;;;;;;26.97;52.25;99562.69;5061030;28;20029;-61
2022/07/03 07:18:18;;;;;;;7.88;6.47;;;;;;;27.04;50.88;99561.16;5049883;28;20031;-61
2022/07/03 07:20:44;;;;;;;9.55;6.28;;;;;;;27.25;51.09;99560.16;5061409;28;20029;-60
2022/07/03 07:23:09;;;;;;;9.63;6.90;;;;;;;27.27;50.96;99560.84;5047757;28;20322;-61
2022/07/03 07:25:36;;;;;;;7.10;6.40;;;;;;;27.39;51.34;99553.53;5082490;28;20309;-61
2022/07/03 07:28:01;;;;;;;7.85;6.97;;;;;;;27.47;51.84;99552.84;5063283;28;20029;-60
2022/07/03 07:30:27;;;;;;;9.57;7.00;;;;;;;27.49;51.26;99561.50;5042199;28;20024;-61
2022/07/03 07:32:52;;;;;;;10.38;6.85;;;;;;;27.54;50.24;99553.94;5073321;28;20310;-61
2022/07/03 07:35:18;;;;;;;7.57;6.68;;;;;;;27.56;50.15;99562.59;5062367;28;20021;-60
2022/07/03 07:37:44;;;;;;;8.90;7.20;;;;;;;27.66;51.11;99565.22;5063243;28;20400;-62
2022/07/03 07:40:10;;;;;;;9.23;6.97;;;;;;;27.56;50.18;99559.94;5063407;28;20082;-62
2022/07/03 07:42:36;;;;;;;14.82;6.60;;;;;;;27.65;49.77;99561.72;5063631;28;20024;-63
2022/07/03 07:45:02;;;;;;;7.38;6.65;;;;;;;27.68;49.74;99558.78;5078651;28;20099;-62
2022/07/03 07:47:29;;;;;;;6.97;6.10;;;;;;;27.79;49.22;99564.88;5068856;28;20040;-62
2022/07/03 07:49:54;;;;;;;6.97;6.25;;;;;;;27.73;46.84;99558.31;5082168;28;20028;-63
2022/07/03 07:52:20;;;;;;;8.85;6.82;;;;;;;27.89;49.07;99563.88;5063170;28;20116;-62
2022/07/03 07:54:45;;;;;;;7.32;6.47;;;;;;;27.85;49.59;99554.50;5045135;28;20035;-62
2022/07/03 07:57:11;;;;;;;7.88;6.10;;;;;;;27.89;47.75;99563.00;5063109;28;20214;-62
2022/07/03 07:59:36;;;;;;;7.35;6.43;;;;;;;28.00;47.84;99556.69;5063049;28;20028;-63
2022/07/03 08:07:30;;;;;;;6.30;5.80;;;;;;;27.97;46.33;99552.47;5059343;28;21501;-63
2022/07/03 08:09:55;;;;;;;7.63;5.90;;;;;;;28.08;46.21;99556.78;5060848;28;20032;-62
2022/07/03 08:12:21;;;;;;;7.82;6.18;;;;;;;28.19;45.73;99559.25;5052528;28;20025;-61
2022/07/03 08:14:47;;;;;;;6.25;5.75;;;;;;;28.23;46.63;99554.44;5060419;28;20024;-62
2022/07/03 08:17:12;;;;;;;7.75;6.35;;;;;;;28.34;46.84;99556.88;5061874;28;20264;-62
2022/07/03 08:19:38;;;;;;;7.43;6.82;;;;;;;28.33;47.16;99555.22;5058970;28;20326;-62
2022/07/03 08:22:03;;;;;;;6.78;5.97;;;;;;;28.32;46.17;99563.34;5039994;28;20043;-62
2022/07/03 08:24:29;;;;;;;6.13;5.57;;;;;;;28.34;46.79;99559.56;5059592;28;20096;-62
2022/07/03 08:26:55;;;;;;;9.10;6.75;;;;;;;28.36;46.58;99557.59;5057779;28;20025;-62
2022/07/03 08:29:20;;;;;;;6.70;6.10;;;;;;;28.32;44.00;99564.22;5059299;28;20033;-63
2022/07/03 08:31:46;;;;;;;7.78;6.25;;;;;;;28.36;44.27;99557.59;5055554;28;20025;-61
2022/07/03 08:34:13;;;;;;;7.78;6.38;;;;;;;28.44;44.74;99564.81;5061490;28;20025;-61
2022/07/03 08:36:42;;;;;;;7.90;6.10;;;;;;;28.51;44.54;99559.72;5062301;28;20049;-61
2022/07/03 08:39:09;;;;;;;11.30;7.38;;;;;;;28.48;44.67;99554.72;5062240;28;20025;-62
2022/07/03 08:41:39;;;;;;;6.88;6.10;;;;;;;28.60;42.60;99550.81;5061744;28;20017;-63
2022/07/03 08:44:05;;;;;;;5.75;5.35;;;;;;;28.45;42.73;99528.34;5062160;28;20021;-62
2022/07/03 08:46:32;;;;;;;5.95;5.35;;;;;;;28.75;42.27;99551.16;5053745;28;20024;-61
2022/07/03 08:49:00;;;;;;;7.25;5.63;;;;;;;28.55;40.28;99524.63;5061846;28;20123;-61
2022/07/03 08:51:27;;;;;;;5.50;5.05;;;;;;;28.96;41.37;99560.63;5051700;28;20360;-63
2022/07/03 08:53:54;;;;;;;5.93;5.43;;;;;;;29.06;41.94;99567.56;5050829;28;20032;-62
2022/07/03 08:56:22;;;;;;;6.85;5.57;;;;;;;28.83;41.67;99524.56;5059932;28;20040;-62
2022/07/03 08:58:47;;;;;;;5.63;5.13;;;;;;;29.13;40.52;99567.78;5059279;28;20036;-62
2022/07/03 09:01:17;;;;;;;5.90;5.40;;;;;;;29.10;41.02;99563.59;5044225;28;20043;-61
2022/07/03 09:03:44;;;;;;;5.70;5.20;;;;;;;29.16;41.49;99550.59;5064234;28;20041;-61
2022/07/03 09:06:12;;;;;;;5.80;5.20;;;;;;;29.15;40.44;99559.63;5062745;28;20031;-62
2022/07/03 09:08:39;;;;;;;7.20;5.70;;;;;;;29.22;40.70;99563.31;5064714;28;20021;-62
2022/07/03 09:11:05;;;;;;;6.38;5.80;;;;;;;29.09;40.35;99532.56;5059517;28;20356;-61
2022/07/03 09:13:30;;;;;;;7.35;5.40;;;;;;;29.29;38.19;99556.41;5057382;28;20037;-61
2022/07/03 09:15:56;;;;;;;6.00;5.50;;;;;;;29.31;40.20;99557.06;5060422;28;20017;-62
2022/07/03 09:18:39;;;;;;;6.05;5.47;;;;;;;29.40;40.61;99540.13;5060926;28;20036;-62
2022/07/03 09:21:05;;;;;;;8.63;5.47;;;;;;;29.34;39.25;99554.09;5056770;28;20397;-62
2022/07/03 09:23:43;;;;;;;6.35;5.45;;;;;;;29.39;39.93;99553.63;5053195;28;20021;-60
2022/07/03 09:26:14;;;;;;;7.85;5.90;;;;;;;29.38;40.15;99566.13;5059959;28;20033;-63
2022/07/03 09:28:51;;;;;;;6.20;5.63;;;;;;;29.31;41.18;99559.75;5061919;28;20092;-62
2022/07/03 09:31:22;;;;;;;8.40;5.57;;;;;;;29.30;41.33;99560.72;5061622;28;20230;-63
2022/07/03 09:33:54;;;;;;;6.45;5.35;;;;;;;29.40;41.44;99555.28;5065184;28;20028;-62
2022/07/03 09:36:44;;;;;;;6.20;5.15;;;;;;;29.51;39.15;99554.19;5053888;28;20049;-64
2022/07/03 09:39:20;;;;;;;5.95;5.20;;;;;;;29.29;37.88;99521.72;5046253;28;20104;-63
2022/07/03 09:42:03;;;;;;;5.50;4.72;;;;;;;29.63;37.69;99555.59;5064321;28;20032;-62
2022/07/03 09:44:38;;;;;;;5.40;4.93;;;;;;;29.59;36.60;99555.06;5064809;28;20033;-62
2022/07/03 09:47:07;;;;;;;5.38;4.88;;;;;;;29.68;37.69;99544.44;5065002;28;20086;-63
2022/07/03 09:49:51;;;;;;;5.55;5.05;;;;;;;29.71;36.64;99552.09;5063733;28;20032;-62
2022/07/03 09:52:38;;;;;;;6.60;5.20;;;;;;;29.54;36.71;99551.19;5064947;28;20029;-64
2022/07/03 09:55:10;;;;;;;5.93;5.30;;;;;;;29.45;38.36;99539.66;5047775;28;20333;-61
2022/07/03 09:57:49;;;;;;;7.65;5.18;;;;;;;29.51;37.76;99544.34;5062189;28;20021;-61
2022/07/03 10:00:31;;;;;;;6.53;5.82;;;;;;;29.22;37.75;99502.81;5073707;28;20225;-61
2022/07/03 10:03:04;;;;;;;5.63;5.18;;;;;;;29.46;37.26;99549.34;5076465;28;20279;-62
2022/07/03 10:05:36;;;;;;;6.40;5.40;;;;;;;29.61;37.22;99536.22;5064769;28;20024;-62
2022/07/03 10:08:13;;;;;;;5.70;5.20;;;;;;;29.70;37.43;99545.94;5064693;28;20234;-62
2022/07/03 10:10:41;;;;;;;6.38;5.65;;;;;;;29.52;38.25;99514.00;5065029;28;20341;-62
2022/07/03 10:13:07;;;;;;;6.20;5.60;;;;;;;29.67;39.23;99542.75;5063983;28;20044;-62
2022/07/03 10:15:37;;;;;;;6.57;5.38;;;;;;;29.29;39.20;99539.53;5064617;28;20569;-63
2022/07/03 10:18:09;;;;;;;5.90;5.40;;;;;;;29.23;38.98;99557.00;5061985;28;20029;-63
2022/07/03 10:20:43;;;;;;;6.07;5.47;;;;;;;29.17;39.44;99554.94;5060621;28;20302;-62
2022/07/03 10:23:10;;;;;;;6.80;5.05;;;;;;;29.20;40.15;99551.97;5060410;28;20029;-62
2022/07/03 10:25:40;;;;;;;5.95;5.35;;;;;;;28.98;40.37;99495.47;5058190;28;20349;-62
2022/07/03 10:28:06;;;;;;;6.38;5.72;;;;;;;29.35;39.98;99534.41;5044912;28;20151;-61
2022/07/03 10:30:32;;;;;;;5.90;5.43;;;;;;;29.37;39.38;99532.44;5062680;28;20035;-63
2022/07/03 10:32:58;;;;;;;5.65;5.15;;;;;;;29.31;38.48;99527.72;5043139;28;20032;-62
2022/07/03 10:35:31;;;;;;;6.28;5.70;;;;;;;29.31;39.56;99542.91;5064837;28;20028;-61
2022/07/03 10:38:03;;;;;;;7.18;5.50;;;;;;;29.34;39.77;99540.75;5064075;28;20051;-62
2022/07/03 10:46:32;;;;;;;6.70;5.57;;;;;;;29.60;38.32;99539.88;5063230;28;20029;-61
2022/07/03 10:49:08;;;;;;;8.80;5.60;;;;;;;29.41;39.26;99509.75;5077101;28;20102;-59
2022/07/03 10:51:49;;;;;;;6.07;5.47;;;;;;;29.38;35.97;99534.09;5071509;28;20148;-60
2022/07/03 10:54:19;;;;;;;6.50;5.55;;;;;;;29.07;35.62;99547.91;5073321;28;20314;-62
2022/07/03 10:56:57;;;;;;;5.03;4.57;;;;;;;29.20;37.84;99530.63;5064078;28;20025;-60
2022/07/03 10:59:46;;;;;;;5.32;4.60;;;;;;;29.25;38.69;99537.19;5063881;28;20031;-60
2022/07/03 11:02:20;;;;;;;6.18;5.53;;;;;;;29.22;37.78;99537.47;5029674;28;20045;-59
2022/07/03 11:04:59;;;;;;;6.22;5.22;;;;;;;29.40;38.47;99541.94;5052097;28;20044;-60
2022/07/03 11:07:29;;;;;;;8.00;5.63;;;;;;;29.39;37.26;99535.78;5044105;28;20222;-61
2022/07/03 11:10:13;;;;;;;6.23;5.63;;;;;;;29.36;38.21;99501.41;5060976;28;20390;-61
2022/07/03 11:13:01;;;;;;;6.25;5.75;;;;;;;29.51;38.32;99524.81;5041632;28;20451;-61
2022/07/03 11:15:29;;;;;;;5.72;5.30;;;;;;;29.53;37.82;99520.16;5054764;28;20105;-61
2022/07/03 11:18:16;;;;;;;5.70;5.20;;;;;;;29.34;37.46;99514.06;5051756;28;20036;-61
2022/07/03 11:20:42;;;;;;;5.78;4.95;;;;;;;29.40;37.29;99516.13;5057237;28;20293;-62
2022/07/03 11:23:10;;;;;;;6.22;5.47;;;;;;;29.42;36.58;99514.09;5063410;28;20032;-61
2022/07/03 11:25:50;;;;;;;5.70;5.00;;;;;;;29.47;37.51;99515.47;5082824;28;20021;-61
2022/07/03 11:28:30;;;;;;;5.47;4.68;;;;;;;29.57;37.04;99511.69;5064498;28;20039;-61
2022/07/03 11:33:55;;;;;;;6.75;5.07;;;;;;;29.63;37.33;99518.22;5045414;28;20329;-60
2022/07/03 11:36:28;;;;;;;5.55;5.15;;;;;;;29.73;38.27;99507.38;5062797;28;20385;-61
2022/07/03 11:38:57;;;;;;;6.85;5.15;;;;;;;29.76;37.54;99504.41;5062751;28;20044;-61
2022/07/03 11:41:25;;;;;;;5.20;4.80;;;;;;;29.76;37.41;99502.56;5054313;28;20028;-59
2022/07/03 11:43:55;;;;;;;6.53;5.22;;;;;;;29.79;38.51;99499.56;5041790;28;20398;-60
2022/07/03 11:46:26;;;;;;;5.73;5.20;;;;;;;29.84;38.15;99507.13;5049770;28;20088;-63
2022/07/03 11:49:15;;;;;;;5.57;5.07;;;;;;;29.67;38.39;99468.00;5057036;28;20029;-60
2022/07/03 11:51:43;;;;;;;5.45;5.00;;;;;;;29.79;37.59;99499.56;5062448;28;20253;-60
2022/07/03 11:54:08;;;;;;;5.75;5.25;;;;;;;29.77;35.80;99498.91;5063141;28;20029;-61
2022/07/03 11:56:36;;;;;;;5.47;5.07;;;;;;;29.66;36.69;99455.63;5049767;28;20024;-61
2022/07/03 11:59:04;;;;;;;5.38;4.90;;;;;;;29.71;36.40;99456.81;5082466;28;20030;-60
2022/07/03 12:01:35;;;;;;;6.65;5.10;;;;;;;29.76;35.89;99467.03;5063055;28;20092;-60
2022/07/03 12:04:16;;;;;;;7.13;4.97;;;;;;;29.94;37.19;99491.81;5045097;28;20035;-61